createdAt,value
2019-01-25T00:00:11.426Z,82.73
2019-01-25T00:02:40.222Z,72.80
2019-01-25T00:05:08.869Z,65.73
2019-01-25T00:07:37.407Z,82.30
2019-01-25T00:10:08.232Z,81.60
2019-01-25T00:12:36.779Z,80.23
2019-01-25T00:15:08.667Z,65.47
2019-01-25T00:17:37.275Z,80.47
2019-01-25T00:20:13.171Z,69.90
2019-01-25T00:22:41.954Z,79.33
2019-01-25T00:25:10.855Z,76.57
2019-01-25T00:27:39.430Z,77.47
2019-01-25T00:30:13.905Z,79.53
2019-01-25T00:32:42.750Z,68.93
2019-01-25T00:35:11.538Z,79.20
2019-01-25T00:37:40.326Z,73.67
2019-01-25T00:40:12.288Z,76.97
2019-01-25T00:42:41.170Z,70.10
2019-01-25T00:45:11.255Z,69.17
2019-01-25T00:47:39.906Z,78.33
2019-01-25T00:50:14.265Z,79.13
2019-01-25T00:52:42.786Z,72.23
2019-01-25T00:55:11.579Z,63.40
2019-01-25T00:57:40.643Z,71.03
2019-01-25T01:00:12.561Z,66.07
2019-01-25T01:02:41.460Z,61.73
2019-01-25T01:05:10.256Z,78.03
2019-01-25T01:07:38.981Z,72.20
2019-01-25T01:10:14.115Z,67.50
2019-01-25T01:12:40.539Z,69.10
2019-01-25T01:15:12.221Z,79.37
2019-01-25T01:17:40.863Z,70.90
2019-01-25T01:20:12.256Z,66.80
2019-01-25T01:22:40.902Z,58.63
2019-01-25T01:25:10.492Z,69.87
2019-01-25T01:27:39.214Z,73.63
2019-01-25T01:30:17.125Z,66.33
2019-01-25T01:32:46.068Z,77.67
2019-01-25T01:35:15.057Z,64.80
2019-01-25T01:37:43.782Z,70.47
2019-01-25T01:40:22.119Z,78.13
2019-01-25T01:42:48.528Z,62.40
2019-01-25T01:45:17.820Z,72.73
2019-01-25T01:47:46.457Z,69.73
2019-01-25T01:50:17.013Z,78.13
2019-01-25T01:52:46.216Z,73.67
2019-01-25T01:55:14.837Z,64.27
2019-01-25T01:57:43.445Z,67.60
2019-01-25T02:00:15.366Z,62.10
2019-01-25T02:02:43.913Z,70.67
2019-01-25T02:05:12.633Z,64.30
2019-01-25T02:07:41.250Z,67.00
2019-01-25T02:10:29.552Z,61.40
2019-01-25T02:12:55.881Z,70.10
2019-01-25T02:15:24.593Z,64.00
2019-01-25T02:17:53.672Z,63.43
2019-01-25T02:20:25.073Z,67.03
2019-01-25T02:22:53.702Z,72.17
2019-01-25T02:25:22.718Z,72.70
2019-01-25T02:27:51.414Z,75.90
2019-01-25T02:30:22.346Z,73.00
2019-01-25T02:32:51.059Z,71.93
2019-01-25T02:35:19.702Z,67.47
2019-01-25T02:37:48.317Z,75.67
2019-01-25T02:40:19.643Z,63.17
2019-01-25T02:42:48.259Z,77.40
2019-01-25T02:45:17.111Z,63.43
2019-01-25T02:47:46.208Z,76.47
2019-01-25T02:50:17.062Z,67.80
2019-01-25T02:52:45.692Z,76.57
2019-01-25T02:55:15.915Z,76.90
2019-01-25T02:57:44.524Z,55.27
2019-01-25T03:00:24.491Z,67.07
2019-01-25T03:02:53.792Z,74.50
2019-01-25T03:05:23.903Z,72.07
2019-01-25T03:07:52.693Z,61.77
2019-01-25T03:10:28.461Z,68.20
2019-01-25T03:12:53.047Z,63.57
2019-01-25T03:15:23.877Z,61.60
2019-01-25T03:17:52.868Z,52.17
2019-01-25T03:20:21.674Z,64.30
2019-01-25T03:22:50.294Z,55.13
2019-01-25T03:25:21.110Z,59.00
2019-01-25T03:27:49.735Z,56.73
2019-01-25T03:30:25.657Z,61.33
2019-01-25T03:32:54.781Z,70.53
2019-01-25T03:35:25.462Z,66.50
2019-01-25T03:37:54.455Z,67.63
2019-01-25T03:40:25.158Z,64.83
2019-01-25T03:42:54.043Z,65.73
2019-01-25T03:45:23.268Z,58.10
2019-01-25T03:47:52.090Z,57.20
2019-01-25T03:50:26.033Z,58.87
2019-01-25T03:52:54.717Z,56.43
2019-01-25T03:55:24.430Z,68.67
2019-01-25T03:57:53.151Z,55.97
2019-01-25T04:00:26.607Z,59.93
2019-01-25T04:02:55.226Z,58.87
2019-01-25T04:05:23.947Z,61.30
2019-01-25T04:07:52.571Z,51.07
2019-01-25T04:10:23.954Z,54.27
2019-01-25T04:12:52.593Z,54.40
2019-01-25T04:15:23.338Z,51.70
2019-01-25T04:17:51.886Z,51.80
2019-01-25T04:20:22.222Z,54.67
2019-01-25T04:22:50.902Z,59.50
2019-01-25T04:25:21.626Z,61.00
2019-01-25T04:27:50.830Z,57.20
2019-01-25T04:30:24.252Z,59.53
2019-01-25T04:32:52.944Z,52.93
2019-01-25T04:35:21.569Z,62.40
2019-01-25T04:37:50.054Z,51.87
2019-01-25T04:40:19.263Z,58.27
2019-01-25T04:42:48.049Z,51.50
2019-01-25T04:45:18.743Z,54.80
2019-01-25T04:47:47.449Z,54.47
2019-01-25T04:50:21.506Z,63.20
2019-01-25T04:52:50.355Z,56.77
2019-01-25T04:55:21.514Z,54.07
2019-01-25T04:57:50.261Z,64.67
2019-01-25T05:00:21.222Z,53.53
2019-01-25T05:02:58.122Z,62.30
2019-01-25T05:05:27.507Z,57.20
2019-01-25T05:08:05.448Z,52.07
2019-01-25T05:10:34.267Z,59.67
2019-01-25T05:13:02.934Z,53.07
2019-01-25T05:15:31.610Z,57.10
2019-01-25T05:18:00.267Z,57.90
2019-01-25T05:20:29.066Z,56.77
2019-01-25T05:23:00.194Z,53.67
2019-01-25T05:25:29.093Z,52.87
2019-01-25T05:27:59.484Z,54.70
2019-01-25T05:30:28.109Z,54.23
2019-01-25T05:32:56.839Z,56.93
2019-01-25T05:35:26.915Z,56.63
2019-01-25T05:37:55.495Z,55.37
2019-01-25T05:40:26.425Z,56.03
2019-01-25T05:42:54.998Z,57.77
2019-01-25T05:45:23.630Z,56.37
2019-01-25T05:47:52.199Z,52.30
2019-01-25T05:50:20.828Z,55.43
2019-01-25T05:52:49.472Z,65.63
2019-01-25T05:55:20.530Z,53.57
2019-01-25T05:57:49.247Z,63.90
2019-01-25T06:00:19.501Z,60.43
2019-01-25T06:02:48.154Z,54.30
2019-01-25T06:05:17.341Z,58.80
2019-01-25T06:07:45.979Z,55.47
2019-01-25T06:10:14.636Z,56.77
2019-01-25T06:12:43.210Z,47.37
2019-01-25T06:15:13.390Z,55.27
2019-01-25T06:17:41.966Z,58.70
2019-01-25T06:20:12.058Z,60.60
2019-01-25T06:22:41.398Z,50.97
2019-01-25T06:25:09.944Z,53.47
2019-01-25T06:27:40.137Z,47.13
2019-01-25T06:30:13.823Z,54.87
2019-01-25T06:32:42.469Z,56.77
2019-01-25T06:35:12.209Z,46.97
2019-01-25T06:37:40.823Z,57.23
2019-01-25T06:40:14.758Z,54.60
2019-01-25T06:42:43.303Z,55.97
2019-01-25T06:45:12.958Z,51.93
2019-01-25T06:47:41.506Z,47.73
2019-01-25T06:50:12.880Z,52.50
2019-01-25T06:52:41.429Z,55.63
2019-01-25T06:55:10.144Z,51.53
2019-01-25T06:57:46.406Z,53.93
2019-01-25T07:00:18.466Z,47.97
2019-01-25T07:02:47.254Z,48.70
2019-01-25T07:05:15.830Z,53.30
2019-01-25T07:07:45.954Z,51.33
2019-01-25T07:10:17.669Z,49.57
2019-01-25T07:12:46.281Z,49.20
2019-01-25T07:15:16.658Z,50.77
2019-01-25T07:17:46.567Z,49.77
2019-01-25T07:20:16.575Z,50.23
2019-01-25T07:22:45.077Z,51.37
2019-01-25T07:25:15.396Z,53.40
2019-01-25T07:27:43.945Z,49.87
2019-01-25T07:30:16.987Z,51.17
2019-01-25T07:32:45.707Z,43.13
2019-01-25T07:35:14.400Z,46.73
2019-01-25T07:37:43.029Z,49.40
2019-01-25T07:40:12.064Z,49.33
2019-01-25T07:42:40.774Z,51.17
2019-01-25T07:45:12.010Z,47.40
2019-01-25T07:47:40.540Z,49.37
2019-01-25T07:50:12.627Z,43.87
2019-01-25T07:52:41.641Z,45.23
2019-01-25T07:55:13.422Z,51.30
2019-01-25T07:57:41.981Z,52.53
2019-01-25T08:00:13.170Z,45.27
2019-01-25T08:02:41.721Z,48.60
2019-01-25T08:05:11.330Z,43.63
2019-01-25T08:07:39.886Z,48.33
2019-01-25T08:10:14.161Z,46.93
2019-01-25T08:12:42.760Z,46.60
2019-01-25T08:15:14.587Z,44.00
2019-01-25T08:17:43.206Z,46.70
2019-01-25T08:20:13.323Z,43.83
2019-01-25T08:22:42.286Z,46.37
2019-01-25T08:25:11.067Z,47.73
2019-01-25T08:27:39.637Z,46.70
2019-01-25T08:30:16.500Z,43.17
2019-01-25T08:32:45.126Z,48.40
2019-01-25T08:35:15.011Z,54.57
2019-01-25T08:37:43.706Z,47.70
2019-01-25T08:40:16.389Z,51.03
2019-01-25T08:42:45.095Z,45.47
2019-01-25T08:45:18.687Z,50.37
2019-01-25T08:47:47.353Z,47.50
2019-01-25T08:50:21.825Z,47.20
2019-01-25T08:52:50.543Z,50.77
2019-01-25T08:55:21.306Z,49.33
2019-01-25T08:57:49.485Z,50.00
2019-01-25T09:00:20.600Z,51.73
2019-01-25T09:02:49.267Z,51.93
2019-01-25T09:05:18.834Z,44.40
2019-01-25T09:07:47.765Z,54.60
2019-01-25T09:10:18.908Z,52.67
2019-01-25T09:12:47.566Z,56.07
2019-01-25T09:15:19.028Z,66.27
2019-01-25T09:17:47.734Z,55.47
2019-01-25T09:20:21.431Z,81.97
2019-01-25T09:22:50.069Z,59.03
2019-01-25T09:25:18.758Z,65.03
2019-01-25T09:27:47.988Z,57.10
2019-01-25T09:30:22.711Z,52.33
2019-01-25T09:32:51.555Z,52.40
2019-01-25T09:35:20.645Z,52.87
2019-01-25T09:37:50.342Z,61.87
2019-01-25T09:40:22.523Z,61.30
2019-01-25T09:42:51.848Z,75.57
2019-01-25T09:45:21.044Z,56.47
2019-01-25T09:47:49.718Z,60.47
2019-01-25T09:50:20.245Z,56.13
2019-01-25T09:52:49.151Z,60.37
2019-01-25T09:55:25.245Z,70.67
2019-01-25T09:57:56.727Z,59.30
2019-01-25T10:00:33.982Z,58.00
2019-01-25T10:03:02.567Z,79.90
2019-01-25T10:05:31.183Z,67.20
2019-01-25T10:07:59.730Z,65.47
2019-01-25T10:10:28.307Z,83.47
2019-01-25T10:12:56.852Z,49.17
2019-01-25T10:15:27.797Z,55.43
2019-01-25T10:17:56.473Z,61.03
2019-01-25T10:20:25.287Z,56.20
2019-01-25T10:22:53.895Z,59.87
2019-01-25T10:25:22.537Z,47.73
2019-01-25T10:27:51.152Z,65.90
2019-01-25T10:30:22.906Z,57.73
2019-01-25T10:32:51.541Z,50.93
2019-01-25T10:35:20.247Z,56.90
2019-01-25T10:37:49.033Z,55.70
2019-01-25T10:40:20.224Z,50.90
2019-01-25T10:42:53.354Z,51.77
2019-01-25T10:45:30.917Z,63.63
2019-01-25T10:47:59.529Z,66.37
2019-01-25T10:50:28.166Z,62.27
2019-01-25T10:52:56.882Z,64.10
2019-01-25T10:55:25.593Z,57.60
2019-01-25T10:57:54.286Z,72.30
2019-01-25T11:00:23.253Z,61.83
2019-01-25T11:02:58.106Z,56.97
2019-01-25T11:05:27.488Z,74.87
2019-01-25T11:07:56.046Z,63.50
2019-01-25T11:10:24.754Z,65.17
2019-01-25T11:13:00.515Z,63.10
2019-01-25T11:15:25.582Z,67.90
2019-01-25T11:17:54.134Z,64.47
2019-01-25T11:20:24.762Z,63.27
2019-01-25T11:22:53.760Z,62.40
2019-01-25T11:25:31.743Z,62.77
2019-01-25T11:28:00.309Z,79.23
2019-01-25T11:30:29.002Z,56.87
2019-01-25T11:32:57.576Z,68.83
2019-01-25T11:35:26.045Z,62.50
2019-01-25T11:37:54.557Z,65.20
2019-01-25T11:40:35.134Z,64.00
2019-01-25T11:43:08.420Z,63.10
2019-01-25T11:45:33.963Z,63.83
2019-01-25T11:48:02.601Z,63.73
2019-01-25T11:50:31.400Z,59.30
2019-01-25T11:52:59.965Z,63.33
2019-01-25T11:55:28.436Z,77.50
2019-01-25T11:57:57.000Z,71.90
2019-01-25T12:00:28.187Z,65.63
2019-01-25T12:02:56.828Z,67.90
2019-01-25T12:05:25.942Z,65.63
2019-01-25T12:07:55.442Z,65.47
2019-01-25T12:10:31.791Z,68.97
2019-01-25T12:13:00.359Z,65.97
2019-01-25T12:15:28.903Z,62.77
2019-01-25T12:17:57.471Z,60.33
2019-01-25T12:20:28.087Z,62.73
2019-01-25T12:22:56.720Z,75.50
2019-01-25T12:25:25.401Z,70.33
2019-01-25T12:27:54.242Z,70.30
2019-01-25T12:30:39.117Z,61.03
2019-01-25T12:33:08.125Z,64.57
2019-01-25T12:35:38.897Z,65.43
2019-01-25T12:38:07.464Z,53.40
2019-01-25T12:40:36.010Z,70.17
2019-01-25T12:43:05.321Z,64.80
2019-01-25T12:45:34.307Z,74.80
2019-01-25T12:48:02.958Z,66.53
2019-01-25T12:50:37.619Z,64.50
2019-01-25T12:53:08.334Z,65.83
2019-01-25T12:55:36.887Z,64.43
2019-01-25T12:58:06.027Z,64.27
2019-01-25T13:00:34.574Z,59.43
2019-01-25T13:03:03.283Z,68.17
2019-01-25T13:05:31.947Z,63.73
2019-01-25T13:08:00.491Z,67.80
2019-01-25T13:10:29.289Z,62.63
2019-01-25T13:12:58.010Z,51.37
2019-01-25T13:15:26.622Z,58.40
2019-01-25T13:17:55.215Z,57.90
2019-01-25T13:20:28.623Z,58.47
2019-01-25T13:22:57.349Z,72.57
2019-01-25T13:25:25.908Z,60.30
2019-01-25T13:27:54.561Z,69.60
2019-01-25T13:30:26.130Z,65.53
2019-01-25T13:32:54.750Z,67.90
2019-01-25T13:35:23.601Z,59.13
2019-01-25T13:37:52.495Z,78.73
2019-01-25T13:40:28.426Z,83.77
2019-01-25T13:42:57.341Z,75.40
2019-01-25T13:45:25.981Z,71.63
2019-01-25T13:47:54.668Z,77.30
2019-01-25T13:50:28.683Z,76.17
2019-01-25T13:52:57.235Z,104.83
2019-01-25T13:55:26.257Z,113.50
2019-01-25T13:57:54.932Z,75.17
2019-01-25T14:00:34.850Z,89.53
2019-01-25T14:03:03.832Z,84.03
2019-01-25T14:05:32.412Z,86.53
2019-01-25T14:08:00.953Z,99.30
2019-01-25T14:10:32.057Z,83.07
2019-01-25T14:13:00.598Z,84.97
2019-01-25T14:15:29.401Z,80.53
2019-01-25T14:17:57.865Z,73.20
2019-01-25T14:20:29.038Z,79.57
2019-01-25T14:22:57.608Z,68.33
2019-01-25T14:25:26.313Z,84.03
2019-01-25T14:27:54.849Z,80.10
2019-01-25T14:30:34.686Z,63.17
2019-01-25T14:33:03.758Z,76.03
2019-01-25T14:35:32.386Z,67.03
2019-01-25T14:38:01.129Z,73.23
2019-01-25T14:40:29.811Z,75.23
2019-01-25T14:42:58.381Z,73.40
2019-01-25T14:45:27.295Z,73.13
2019-01-25T14:47:56.008Z,79.27
2019-01-25T14:50:27.459Z,67.67
2019-01-25T14:52:56.110Z,72.60
2019-01-25T14:55:24.715Z,68.97
2019-01-25T14:57:53.414Z,62.53
2019-01-25T15:00:22.022Z,65.20
2019-01-25T15:02:50.594Z,66.97
2019-01-25T15:05:20.381Z,61.77
2019-01-25T15:07:49.094Z,66.43
2019-01-25T15:10:22.738Z,63.77
2019-01-25T15:12:52.374Z,71.03
2019-01-25T15:15:20.922Z,68.20
2019-01-25T15:17:49.657Z,60.73
2019-01-25T15:20:23.488Z,59.43
2019-01-25T15:22:52.054Z,58.57
2019-01-25T15:25:20.672Z,61.93
2019-01-25T15:27:49.239Z,65.03
2019-01-25T15:30:20.863Z,71.23
2019-01-25T15:32:49.497Z,62.07
2019-01-25T15:35:19.986Z,62.50
2019-01-25T15:37:48.687Z,62.40
2019-01-25T15:40:19.168Z,59.07
2019-01-25T15:42:47.906Z,57.73
2019-01-25T15:45:18.412Z,56.83
2019-01-25T15:47:46.985Z,53.03
2019-01-25T15:50:18.601Z,66.93
2019-01-25T15:52:47.181Z,58.60
2019-01-25T15:55:16.165Z,62.00
2019-01-25T15:57:44.734Z,59.67
2019-01-25T16:00:15.835Z,57.17
2019-01-25T16:02:44.467Z,58.60
2019-01-25T16:05:16.169Z,67.83
2019-01-25T16:07:44.870Z,58.13
2019-01-25T16:10:15.857Z,59.93
2019-01-25T16:12:44.498Z,54.93
2019-01-25T16:15:18.814Z,61.57
2019-01-25T16:17:47.653Z,56.23
2019-01-25T16:20:19.665Z,65.83
2019-01-25T16:22:49.803Z,60.97
2019-01-25T16:25:24.229Z,54.50
2019-01-25T16:27:52.812Z,54.37
2019-01-25T16:30:24.293Z,57.67
2019-01-25T16:32:52.893Z,57.30
2019-01-25T16:35:21.469Z,56.73
2019-01-25T16:37:50.078Z,55.77
2019-01-25T16:40:21.391Z,55.10
2019-01-25T16:42:49.946Z,48.13
2019-01-25T16:45:27.541Z,52.83
2019-01-25T16:47:56.087Z,51.47
2019-01-25T16:50:24.938Z,44.23
2019-01-25T16:52:53.474Z,54.10
2019-01-25T16:55:22.057Z,45.43
2019-01-25T16:57:50.618Z,47.53
2019-01-25T17:00:34.029Z,42.80
2019-01-25T17:03:02.571Z,45.20
2019-01-25T17:05:31.288Z,47.37
2019-01-25T17:07:59.922Z,48.90
2019-01-25T17:10:28.827Z,43.87
2019-01-25T17:12:57.378Z,45.40
2019-01-25T17:15:26.803Z,43.20
2019-01-25T17:17:55.475Z,36.10
2019-01-25T17:20:28.926Z,31.97
2019-01-25T17:22:57.839Z,31.27
2019-01-25T17:25:26.427Z,32.03
2019-01-25T17:27:55.030Z,37.27
2019-01-25T17:30:28.800Z,29.50
2019-01-25T17:32:59.091Z,31.93
2019-01-25T17:35:27.897Z,26.83
2019-01-25T17:37:56.578Z,28.37
2019-01-25T17:40:33.785Z,28.27
2019-01-25T17:43:02.251Z,28.77
2019-01-25T17:45:30.891Z,31.30
2019-01-25T17:47:59.435Z,33.83
2019-01-25T17:50:28.090Z,25.43
2019-01-25T17:52:56.617Z,28.90
2019-01-25T17:55:25.185Z,29.10
2019-01-25T17:57:53.797Z,27.10
2019-01-25T18:00:32.414Z,22.77
2019-01-25T18:03:01.037Z,24.90
2019-01-25T18:05:29.605Z,29.90
2019-01-25T18:07:58.153Z,28.90
2019-01-25T18:10:26.790Z,26.80
2019-01-25T18:12:55.406Z,28.40
2019-01-25T18:15:24.116Z,32.50
2019-01-25T18:17:52.657Z,24.00
2019-01-25T18:20:23.329Z,29.83
2019-01-25T18:22:52.216Z,26.57
2019-01-25T18:25:38.887Z,27.43
2019-01-25T18:28:10.510Z,27.80
2019-01-25T18:30:51.213Z,22.10
2019-01-25T18:33:19.840Z,27.60
2019-01-25T18:35:48.471Z,22.07
2019-01-25T18:38:17.012Z,29.23
2019-01-25T18:40:45.582Z,28.63
2019-01-25T18:43:14.341Z,26.30
2019-01-25T18:45:42.912Z,29.90
2019-01-25T18:48:11.446Z,24.90
2019-01-25T18:50:39.997Z,23.93
2019-01-25T18:53:08.568Z,29.53
2019-01-25T18:55:37.114Z,33.70
2019-01-25T18:58:05.694Z,25.50
2019-01-25T19:00:34.473Z,32.37
2019-01-25T19:03:02.971Z,26.77
2019-01-25T19:05:31.587Z,29.97
2019-01-25T19:08:00.172Z,25.53
2019-01-25T19:10:29.854Z,31.00
2019-01-25T19:12:58.495Z,36.77
2019-01-25T19:15:33.407Z,32.43
2019-01-25T19:18:02.050Z,31.17
2019-01-25T19:20:30.663Z,33.37
2019-01-25T19:22:59.301Z,37.90
2019-01-25T19:25:27.842Z,28.87
2019-01-25T19:27:56.481Z,28.00
2019-01-25T19:30:36.917Z,31.80
2019-01-25T19:33:06.290Z,40.33
2019-01-25T19:35:35.079Z,34.47
2019-01-25T19:38:03.805Z,36.07
2019-01-25T19:40:36.303Z,33.63
2019-01-25T19:43:06.235Z,32.40
2019-01-25T19:45:34.924Z,34.93
2019-01-25T19:48:03.933Z,40.23
2019-01-25T19:50:34.015Z,34.57
2019-01-25T19:53:02.741Z,36.33
2019-01-25T19:55:32.826Z,37.30
2019-01-25T19:58:04.263Z,34.17
2019-01-25T20:00:41.565Z,33.90
2019-01-25T20:03:10.299Z,33.43
2019-01-25T20:05:38.978Z,35.77
2019-01-25T20:08:07.789Z,34.63
2019-01-25T20:10:36.427Z,36.40
2019-01-25T20:13:05.958Z,32.43
2019-01-25T20:15:34.630Z,32.27
2019-01-25T20:18:03.368Z,38.97
2019-01-25T20:20:34.735Z,33.30
2019-01-25T20:23:03.554Z,34.87
2019-01-25T20:25:32.242Z,34.37
2019-01-25T20:28:00.891Z,32.83
2019-01-25T20:30:31.951Z,35.57
2019-01-25T20:33:01.870Z,33.00
2019-01-25T20:35:41.166Z,32.40
2019-01-25T20:38:09.992Z,32.77
2019-01-25T20:40:38.628Z,37.93
2019-01-25T20:43:07.267Z,43.17
2019-01-25T20:45:37.860Z,30.90
2019-01-25T20:48:06.779Z,32.50
2019-01-25T20:50:36.894Z,31.90
2019-01-25T20:53:07.106Z,33.50
2019-01-25T20:55:35.740Z,34.20
2019-01-25T20:58:04.930Z,40.17
2019-01-25T21:00:35.673Z,38.17
2019-01-25T21:03:05.424Z,34.90
2019-01-25T21:05:34.155Z,41.27
2019-01-25T21:08:02.774Z,39.60
2019-01-25T21:10:31.499Z,35.80
2019-01-25T21:13:00.128Z,37.73
2019-01-25T21:15:35.114Z,38.73
2019-01-25T21:17:59.868Z,32.70
2019-01-25T21:20:31.385Z,38.57
2019-01-25T21:23:00.067Z,37.00
2019-01-25T21:25:28.717Z,37.33
2019-01-25T21:27:57.274Z,37.30
2019-01-25T21:30:28.296Z,42.73
2019-01-25T21:32:56.987Z,40.53
2019-01-25T21:35:25.653Z,35.03
2019-01-25T21:37:54.276Z,42.30
2019-01-25T21:40:25.696Z,40.03
2019-01-25T21:42:54.318Z,34.13
2019-01-25T21:45:25.113Z,39.30
2019-01-25T21:47:54.022Z,37.63
2019-01-25T21:50:27.991Z,38.93
2019-01-25T21:52:56.694Z,52.90
2019-01-25T21:55:25.276Z,41.50
2019-01-25T21:57:53.900Z,49.27
2019-01-25T22:00:28.280Z,51.50
2019-01-25T22:02:56.891Z,43.10
2019-01-25T22:05:25.540Z,47.87
2019-01-25T22:07:54.225Z,36.97
2019-01-25T22:10:25.433Z,48.53
2019-01-25T22:12:54.132Z,53.87
2019-01-25T22:15:22.830Z,42.60
2019-01-25T22:17:51.482Z,40.17
2019-01-25T22:20:25.640Z,39.23
2019-01-25T22:22:54.357Z,39.90
2019-01-25T22:25:23.047Z,41.37
2019-01-25T22:27:52.971Z,38.73
2019-01-25T22:30:24.594Z,33.20
2019-01-25T22:32:53.324Z,47.93
2019-01-25T22:35:22.015Z,37.27
2019-01-25T22:37:50.654Z,36.90
2019-01-25T22:40:22.315Z,38.17
2019-01-25T22:42:50.963Z,36.03
2019-01-25T22:45:21.864Z,39.67
2019-01-25T22:47:50.572Z,35.07
2019-01-25T22:50:26.953Z,41.43
2019-01-25T22:52:55.884Z,34.57
2019-01-25T22:55:25.267Z,36.33
2019-01-25T22:57:53.910Z,33.87
2019-01-25T23:00:50.907Z,32.90
2019-01-25T23:03:28.333Z,37.37
2019-01-25T23:06:05.672Z,34.17
2019-01-25T23:08:34.254Z,32.03
2019-01-25T23:11:02.814Z,29.13
2019-01-25T23:13:31.637Z,35.33
2019-01-25T23:16:06.340Z,29.10
2019-01-25T23:18:30.439Z,33.33
2019-01-25T23:20:59.050Z,35.70
2019-01-25T23:23:27.657Z,34.43
2019-01-25T23:25:56.290Z,35.20
2019-01-25T23:28:24.860Z,37.80
2019-01-25T23:30:53.483Z,33.17
2019-01-25T23:33:22.050Z,33.90
2019-01-25T23:35:50.722Z,36.30
2019-01-25T23:38:19.587Z,32.27
2019-01-25T23:40:48.147Z,29.43
2019-01-25T23:43:16.723Z,34.03
2019-01-25T23:45:45.392Z,31.07
2019-01-25T23:48:13.969Z,34.20
2019-01-25T23:50:42.533Z,34.43
2019-01-25T23:53:11.048Z,28.30
2019-01-25T23:55:39.590Z,32.50
2019-01-25T23:58:08.232Z,30.73
